Hoylake, United Kingdom
Current Conditions -  °F | °C
As of 2:20 PM on Thursday 30 Oct 2014 (Local Time) from EGGP Reporting Station
Rain Showers Rain Showers  
Wind Chill: 61°   Ceiling: 3000
Heat Index: 61°   Visibility: 6mi
Dew Point: 57°   Wind: 9mph
Humidity: 88%   Direction: 190°S
Pressure: 29.94"   Gusts: NA
Location:  53.39°N, 3.18°W
Report Text: EGGP 301420Z 19008KT 130V210 9999 5000S -SHRA FEW020 BKN030 16/14 Q1014
Loading
Personal Weather Stations






























Interactive Weather Map
Tropical Storm Tracking
New forecast layout! Learn more

10-Day Weather Forecast

Advertisements
Track Severe Weather on mobile